createdAt,value
2019-04-16T00:01:25.168Z,37.10
2019-04-16T00:03:58.784Z,37.40
2019-04-16T00:06:53.444Z,37.60
2019-04-16T00:09:42.758Z,37.50
2019-04-16T00:12:25.702Z,37.60
2019-04-16T00:14:54.990Z,37.90
2019-04-16T00:17:23.622Z,37.50
2019-04-16T00:19:52.393Z,37.50
2019-04-16T00:22:30.674Z,37.60
2019-04-16T00:24:59.181Z,37.80
2019-04-16T00:27:28.783Z,38.30
2019-04-16T00:29:58.140Z,38.50
2019-04-16T00:32:30.436Z,39.50
2019-04-16T00:34:59.452Z,39.10
2019-04-16T00:37:30.282Z,39.90
2019-04-16T00:39:58.718Z,40.00
2019-04-16T00:42:27.343Z,40.50
2019-04-16T00:44:55.740Z,41.00
2019-04-16T00:47:24.417Z,41.20
2019-04-16T00:49:57.549Z,41.20
2019-04-16T00:52:23.723Z,41.30
2019-04-16T00:54:52.359Z,42.20
2019-04-16T00:57:21.131Z,41.60
2019-04-16T00:59:54.875Z,41.60
2019-04-16T01:02:20.290Z,41.50
2019-04-16T01:04:48.930Z,41.40
2019-04-16T01:07:17.615Z,41.70
2019-04-16T01:09:46.330Z,42.20
2019-04-16T01:12:15.781Z,42.20
2019-04-16T01:14:44.532Z,42.60
2019-04-16T01:17:13.283Z,42.90
2019-04-16T01:19:41.952Z,43.00
2019-04-16T01:22:15.767Z,43.20
2019-04-16T01:24:41.807Z,43.20
2019-04-16T01:27:10.188Z,43.20
2019-04-16T01:29:39.205Z,43.20
2019-04-16T01:32:27.049Z,43.50
2019-04-16T01:35:12.262Z,43.80
2019-04-16T01:38:00.398Z,44.10
2019-04-16T01:40:47.324Z,44.00
2019-04-16T01:43:16.037Z,44.30
2019-04-16T01:45:45.061Z,44.40
2019-04-16T01:48:13.630Z,44.20
2019-04-16T01:50:43.731Z,44.60
2019-04-16T01:53:12.497Z,44.60
2019-04-16T01:55:42.589Z,45.10
2019-04-16T01:58:11.588Z,45.50
2019-04-16T02:00:40.422Z,45.20
2019-04-16T02:03:09.200Z,45.40
2019-04-16T02:05:37.569Z,45.10
2019-04-16T02:08:06.613Z,45.40
2019-04-16T02:10:38.330Z,45.60
2019-04-16T02:13:05.748Z,45.70
2019-04-16T02:15:34.532Z,46.00
2019-04-16T02:18:03.993Z,46.10
2019-04-16T02:20:32.871Z,46.10
2019-04-16T02:23:01.439Z,46.60
2019-04-16T02:25:29.888Z,46.40
2019-04-16T02:27:58.180Z,46.60
2019-04-16T02:30:26.618Z,46.80
2019-04-16T02:32:55.308Z,46.80
2019-04-16T02:35:23.566Z,46.70
2019-04-16T02:37:53.832Z,46.80
2019-04-16T02:40:22.461Z,47.60
2019-04-16T02:42:51.500Z,47.40
2019-04-16T02:45:23.709Z,47.40
2019-04-16T02:47:50.679Z,47.40
2019-04-16T02:50:30.228Z,48.10
2019-04-16T02:53:27.004Z,48.00
2019-04-16T02:56:17.365Z,47.90
2019-04-16T02:58:49.405Z,48.20
2019-04-16T03:01:51.925Z,48.10
2019-04-16T03:04:26.768Z,48.20
2019-04-16T03:06:54.447Z,48.20
2019-04-16T03:09:23.273Z,48.30
2019-04-16T03:11:53.693Z,48.40
2019-04-16T03:14:22.001Z,48.70
2019-04-16T03:17:03.685Z,49.00
2019-04-16T03:19:35.291Z,48.70
2019-04-16T03:22:03.899Z,49.00
2019-04-16T03:24:32.457Z,49.00
2019-04-16T03:27:04.607Z,49.10
2019-04-16T03:29:32.958Z,49.30
2019-04-16T03:32:02.525Z,49.30
2019-04-16T03:34:31.919Z,49.60
2019-04-16T03:37:01.863Z,49.60
2019-04-16T03:39:33.277Z,50.00
2019-04-16T03:42:02.248Z,50.00
2019-04-16T03:44:33.521Z,49.90
2019-04-16T03:47:01.792Z,49.80
2019-04-16T03:49:30.495Z,49.90
2019-04-16T03:51:59.495Z,49.90
2019-04-16T03:54:27.908Z,50.10
2019-04-16T03:56:56.196Z,50.20
2019-04-16T03:59:24.917Z,50.30
2019-04-16T04:01:53.603Z,50.30
2019-04-16T04:04:22.030Z,50.40
2019-04-16T04:06:50.993Z,50.20
2019-04-16T04:09:22.190Z,50.20
2019-04-16T04:11:50.178Z,50.10
2019-04-16T04:14:22.353Z,50.10
2019-04-16T04:16:48.857Z,49.90
2019-04-16T04:19:17.280Z,49.80
2019-04-16T04:21:45.629Z,50.10
2019-04-16T04:24:14.236Z,50.10
2019-04-16T04:26:42.633Z,50.30
2019-04-16T04:29:11.669Z,50.30
2019-04-16T04:31:40.224Z,50.40
2019-04-16T04:34:10.737Z,50.30
2019-04-16T04:36:39.523Z,50.20
2019-04-16T04:39:10.062Z,50.20
2019-04-16T04:41:40.542Z,50.10
2019-04-16T04:44:09.349Z,50.20
2019-04-16T04:46:37.677Z,50.10
2019-04-16T04:49:06.687Z,49.90
2019-04-16T04:51:36.414Z,49.80
2019-04-16T04:54:05.828Z,49.90
2019-04-16T04:56:34.279Z,50.00
2019-04-16T04:59:05.247Z,49.90
2019-04-16T05:01:33.821Z,49.70
2019-04-16T05:04:24.652Z,49.70
2019-04-16T05:06:57.265Z,49.60
2019-04-16T05:09:29.338Z,49.50
2019-04-16T05:11:57.757Z,49.70
2019-04-16T05:14:26.340Z,49.50
2019-04-16T05:16:54.707Z,49.50
2019-04-16T05:19:23.834Z,49.40
2019-04-16T05:21:52.507Z,49.00
2019-04-16T05:24:20.819Z,49.20
2019-04-16T05:26:49.529Z,48.90
2019-04-16T05:29:19.137Z,48.90
2019-04-16T05:31:47.861Z,48.90
2019-04-16T05:34:17.951Z,48.50
2019-04-16T05:36:48.161Z,48.70
2019-04-16T05:39:16.617Z,48.30
2019-04-16T05:41:47.135Z,48.50
2019-04-16T05:44:16.224Z,48.50
2019-04-16T05:46:46.715Z,48.60
2019-04-16T05:49:15.731Z,48.40
2019-04-16T05:51:44.600Z,48.20
2019-04-16T05:54:32.479Z,48.10
2019-04-16T05:57:01.785Z,47.80
2019-04-16T05:59:33.539Z,47.70
2019-04-16T06:02:08.641Z,47.70
2019-04-16T06:04:37.019Z,47.70
2019-04-16T06:07:07.679Z,47.50
2019-04-16T06:09:36.103Z,47.20
2019-04-16T06:12:05.984Z,47.30
2019-04-16T06:14:42.478Z,47.00
2019-04-16T06:17:32.163Z,47.50
2019-04-16T06:20:25.372Z,47.30
2019-04-16T06:23:14.391Z,46.80
2019-04-16T06:25:57.211Z,47.00
2019-04-16T06:28:45.698Z,46.60
2019-04-16T06:31:39.326Z,46.60
2019-04-16T06:34:26.856Z,46.40
2019-04-16T06:37:27.185Z,46.40
2019-04-16T06:40:09.574Z,45.90
2019-04-16T06:42:45.823Z,45.90
2019-04-16T06:45:24.514Z,46.20
2019-04-16T06:47:57.118Z,45.50
2019-04-16T06:50:44.054Z,45.20
2019-04-16T06:53:19.499Z,44.80
2019-04-16T06:56:15.861Z,44.70
2019-04-16T06:58:54.626Z,44.70
2019-04-16T07:01:48.790Z,44.20
2019-04-16T07:04:30.888Z,43.80
2019-04-16T07:07:21.588Z,42.70
2019-04-16T07:09:56.968Z,42.50
2019-04-16T07:12:29.194Z,42.20
2019-04-16T07:14:57.955Z,41.60
2019-04-16T07:17:32.899Z,42.10
2019-04-16T07:19:57.157Z,40.50
2019-04-16T07:22:25.513Z,40.40
2019-04-16T07:24:55.213Z,38.50
2019-04-16T07:27:24.944Z,38.50
2019-04-16T07:30:06.794Z,38.40
2019-04-16T07:32:44.629Z,38.40
2019-04-16T07:35:41.374Z,33.50
2019-04-16T07:38:24.412Z,30.60
2019-04-16T07:41:25.204Z,27.30
2019-04-16T07:44:27.034Z,27.00
2019-04-16T07:47:27.063Z,25.00
2019-04-16T07:50:02.944Z,24.00
2019-04-16T07:52:50.066Z,22.90
2019-04-16T07:55:36.148Z,22.60
2019-04-16T07:58:04.818Z,21.30
2019-04-16T08:00:33.618Z,21.40
2019-04-16T08:03:02.690Z,21.40
2019-04-16T08:05:31.304Z,20.20
2019-04-16T08:08:00.258Z,19.70
2019-04-16T08:10:29.890Z,19.20
2019-04-16T08:13:08.365Z,19.70
2019-04-16T08:15:37.205Z,19.20
2019-04-16T08:18:06.160Z,19.20
2019-04-16T08:20:35.101Z,19.00
2019-04-16T08:23:24.593Z,18.30
2019-04-16T08:26:02.667Z,18.80
2019-04-16T08:28:24.528Z,18.00
2019-04-16T08:30:53.209Z,17.70
2019-04-16T08:33:21.872Z,17.60
2019-04-16T08:35:50.274Z,17.50
2019-04-16T08:38:19.040Z,17.20
2019-04-16T08:40:47.719Z,16.70
2019-04-16T08:43:16.441Z,16.30
2019-04-16T08:45:47.300Z,15.60
2019-04-16T08:48:18.686Z,15.90
2019-04-16T08:50:49.289Z,16.00
2019-04-16T08:53:17.288Z,15.60
2019-04-16T08:55:46.221Z,15.60
2019-04-16T08:58:14.966Z,16.90
2019-04-16T09:00:46.534Z,17.00
2019-04-16T09:03:15.981Z,17.50
2019-04-16T09:05:44.643Z,18.50
2019-04-16T09:08:32.726Z,19.20
2019-04-16T09:11:04.330Z,19.20
2019-04-16T09:13:36.876Z,19.40
2019-04-16T09:16:05.832Z,19.30
2019-04-16T09:18:48.076Z,18.10
2019-04-16T09:21:16.754Z,17.40
2019-04-16T09:24:08.832Z,16.60
2019-04-16T09:26:43.714Z,16.30
2019-04-16T09:29:25.191Z,15.80
2019-04-16T09:32:10.898Z,15.10
2019-04-16T09:35:10.743Z,14.70
2019-04-16T09:37:44.616Z,14.60
2019-04-16T09:40:31.591Z,14.10
2019-04-16T09:43:01.699Z,14.40
2019-04-16T09:45:30.409Z,14.40
2019-04-16T09:48:02.349Z,14.60
2019-04-16T09:50:31.173Z,15.60
2019-04-16T09:53:01.853Z,15.10
2019-04-16T09:55:29.923Z,15.00
2019-04-16T09:58:05.876Z,14.90
2019-04-16T10:00:34.190Z,15.50
2019-04-16T10:03:37.226Z,15.00
2019-04-16T10:06:06.015Z,15.30
2019-04-16T10:08:35.264Z,15.90
2019-04-16T10:11:06.239Z,14.80
2019-04-16T10:13:36.282Z,14.50
2019-04-16T10:16:05.538Z,15.20
2019-04-16T10:18:35.124Z,15.20
2019-04-16T10:21:04.646Z,15.00
2019-04-16T10:24:08.116Z,15.10
2019-04-16T10:26:36.751Z,15.70
2019-04-16T10:29:08.457Z,15.70
2019-04-16T10:31:37.153Z,16.30
2019-04-16T10:34:05.786Z,16.50
2019-04-16T10:36:37.150Z,16.30
2019-04-16T10:39:14.990Z,16.40
2019-04-16T10:41:52.487Z,15.90
2019-04-16T10:44:56.044Z,16.30
2019-04-16T10:47:52.805Z,16.00
2019-04-16T10:50:48.844Z,15.70
2019-04-16T10:53:26.877Z,15.40
2019-04-16T10:56:12.131Z,15.80
2019-04-16T10:58:52.906Z,15.90
2019-04-16T11:01:34.654Z,14.90
2019-04-16T11:04:11.033Z,14.80
2019-04-16T11:06:41.813Z,14.70
2019-04-16T11:09:10.429Z,15.20
2019-04-16T11:11:39.219Z,14.60
2019-04-16T11:14:07.916Z,14.10
2019-04-16T11:16:38.664Z,14.00
2019-04-16T11:19:07.271Z,14.40
2019-04-16T11:21:36.029Z,14.00
2019-04-16T11:24:04.526Z,14.20
2019-04-16T11:26:33.497Z,13.90
2019-04-16T11:29:02.180Z,14.00
2019-04-16T11:31:30.569Z,14.90
2019-04-16T11:33:59.162Z,14.80
2019-04-16T11:36:30.827Z,14.70
2019-04-16T11:38:58.403Z,14.80
2019-04-16T11:41:26.712Z,14.70
2019-04-16T11:43:55.489Z,14.90
2019-04-16T11:46:24.724Z,14.80
2019-04-16T11:48:53.138Z,15.10
2019-04-16T11:51:23.408Z,16.10
2019-04-16T11:53:52.057Z,16.60
2019-04-16T11:56:22.473Z,16.70
2019-04-16T11:58:50.986Z,16.40
2019-04-16T12:01:38.111Z,16.50
2019-04-16T12:04:28.989Z,16.50
2019-04-16T12:07:32.266Z,16.70
2019-04-16T12:10:20.181Z,16.80
2019-04-16T12:13:08.406Z,17.70
2019-04-16T12:15:46.453Z,18.10
2019-04-16T12:18:21.618Z,18.90
2019-04-16T12:21:00.055Z,18.30
2019-04-16T12:23:43.363Z,18.90
2019-04-16T12:26:37.676Z,19.60
2019-04-16T12:29:24.648Z,20.30
2019-04-16T12:32:05.144Z,20.60
2019-04-16T12:34:55.874Z,21.30
2019-04-16T12:37:42.817Z,22.10
2019-04-16T12:40:24.686Z,22.60
2019-04-16T12:43:14.747Z,23.20
2019-04-16T12:45:56.817Z,23.50
2019-04-16T12:48:31.401Z,24.10
2019-04-16T12:51:25.526Z,24.00
2019-04-16T12:54:27.859Z,24.50
2019-04-16T12:57:14.952Z,24.70
2019-04-16T13:00:04.409Z,24.70
2019-04-16T13:02:44.845Z,24.90
2019-04-16T13:05:36.759Z,24.70
2019-04-16T13:08:31.270Z,24.40
2019-04-16T13:11:12.104Z,25.30
2019-04-16T13:14:15.501Z,25.50
2019-04-16T13:17:04.674Z,25.60
2019-04-16T13:19:43.935Z,25.70
2019-04-16T13:22:13.657Z,25.60
2019-04-16T13:24:49.300Z,25.80
2019-04-16T13:27:22.877Z,26.20
2019-04-16T13:29:51.671Z,26.50
2019-04-16T13:32:20.412Z,26.70
2019-04-16T13:34:48.939Z,27.10
2019-04-16T13:37:17.672Z,27.80
2019-04-16T13:40:07.830Z,27.80
2019-04-16T13:42:36.582Z,28.50
2019-04-16T13:45:30.722Z,29.60
2019-04-16T13:48:14.787Z,30.00
2019-04-16T13:50:51.918Z,32.70
2019-04-16T13:53:39.218Z,33.50
2019-04-16T13:56:34.772Z,35.50
2019-04-16T13:59:30.199Z,37.00
2019-04-16T14:02:18.645Z,37.70
2019-04-16T14:04:47.351Z,39.00
2019-04-16T14:07:16.125Z,40.50
2019-04-16T14:09:45.116Z,41.00
2019-04-16T14:12:14.128Z,41.40
2019-04-16T14:14:43.236Z,42.00
2019-04-16T14:17:17.654Z,42.80
2019-04-16T14:19:45.131Z,43.80
2019-04-16T14:22:13.992Z,45.00
2019-04-16T14:24:43.016Z,46.00
2019-04-16T14:27:14.017Z,46.80
2019-04-16T14:29:42.297Z,48.00
2019-04-16T14:32:10.848Z,48.70
2019-04-16T14:34:47.842Z,49.20
2019-04-16T14:37:17.292Z,48.10
2019-04-16T14:39:51.731Z,48.40
2019-04-16T14:42:22.254Z,48.60
2019-04-16T14:44:55.643Z,49.40
2019-04-16T14:47:24.211Z,50.40
2019-04-16T14:49:53.118Z,51.30
2019-04-16T14:52:21.870Z,52.40
2019-04-16T14:54:57.902Z,52.90
2019-04-16T14:57:28.772Z,53.10
2019-04-16T15:00:19.672Z,52.60
2019-04-16T15:02:53.698Z,53.30
2019-04-16T15:05:32.801Z,55.30
2019-04-16T15:08:23.454Z,54.40
2019-04-16T15:11:20.940Z,53.10
2019-04-16T15:14:11.851Z,52.70
2019-04-16T15:17:12.898Z,52.60
2019-04-16T15:19:47.590Z,54.20
2019-04-16T15:22:29.950Z,54.00
2019-04-16T15:25:06.687Z,54.80
2019-04-16T15:27:53.979Z,55.40
2019-04-16T15:30:51.231Z,54.60
2019-04-16T15:33:46.653Z,54.60
2019-04-16T15:36:19.618Z,55.20
2019-04-16T15:39:06.460Z,55.90
2019-04-16T15:42:09.977Z,55.80
2019-04-16T15:44:45.955Z,56.80
2019-04-16T15:47:32.820Z,56.10
2019-04-16T15:50:12.746Z,55.80
2019-04-16T15:53:10.328Z,56.70
2019-04-16T15:55:59.417Z,56.80
2019-04-16T15:58:47.731Z,56.60
2019-04-16T16:01:39.024Z,57.40
2019-04-16T16:04:10.186Z,57.40
2019-04-16T16:06:43.563Z,58.40
2019-04-16T16:09:30.780Z,57.00
2019-04-16T16:12:04.619Z,56.70
2019-04-16T16:14:35.633Z,56.60
2019-04-16T16:17:04.305Z,56.60
2019-04-16T16:19:33.361Z,55.80
2019-04-16T16:22:02.989Z,56.10
2019-04-16T16:24:35.779Z,56.90
2019-04-16T16:27:03.338Z,56.80
2019-04-16T16:29:31.999Z,57.40
2019-04-16T16:32:01.433Z,56.80
2019-04-16T16:34:30.247Z,57.30
2019-04-16T16:36:59.082Z,57.60
2019-04-16T16:39:27.614Z,57.40
2019-04-16T16:41:56.705Z,58.10
2019-04-16T16:44:25.344Z,57.60
2019-04-16T16:47:16.363Z,58.40
2019-04-16T16:49:45.293Z,58.30
2019-04-16T16:52:42.256Z,59.10
2019-04-16T16:55:23.403Z,59.10
2019-04-16T16:58:11.703Z,59.70
2019-04-16T17:01:19.805Z,59.50
2019-04-16T17:03:52.856Z,59.30
2019-04-16T17:06:22.231Z,59.70
2019-04-16T17:08:51.532Z,59.80
2019-04-16T17:11:20.620Z,60.20
2019-04-16T17:13:50.178Z,60.00
2019-04-16T17:16:18.736Z,60.40
2019-04-16T17:18:47.687Z,61.00
2019-04-16T17:21:16.328Z,61.10
2019-04-16T17:23:45.413Z,61.50
2019-04-16T17:26:16.085Z,60.80
2019-04-16T17:28:45.200Z,61.30
2019-04-16T17:31:14.080Z,61.60
2019-04-16T17:33:42.939Z,61.90
2019-04-16T17:36:11.539Z,61.70
2019-04-16T17:38:40.243Z,62.10
2019-04-16T17:41:11.521Z,62.60
2019-04-16T17:44:03.603Z,62.40
2019-04-16T17:46:54.903Z,62.40
2019-04-16T17:49:42.611Z,63.20
2019-04-16T17:52:39.595Z,64.60
2019-04-16T17:55:43.199Z,63.50
2019-04-16T17:58:36.389Z,64.10
2019-04-16T18:01:29.214Z,63.60
2019-04-16T18:04:10.878Z,65.00
2019-04-16T18:06:49.572Z,65.70
2019-04-16T18:09:28.040Z,65.10
2019-04-16T18:12:17.027Z,64.90
2019-04-16T18:15:09.503Z,66.20
2019-04-16T18:17:51.013Z,65.00
2019-04-16T18:20:36.717Z,65.10
2019-04-16T18:23:28.063Z,65.20
2019-04-16T18:26:22.092Z,66.00
2019-04-16T18:29:05.518Z,66.50
2019-04-16T18:32:09.147Z,66.40
2019-04-16T18:34:57.397Z,66.30
2019-04-16T18:37:36.619Z,66.10
2019-04-16T18:40:28.272Z,65.30
2019-04-16T18:43:03.569Z,66.50
2019-04-16T18:46:07.320Z,66.80
2019-04-16T18:48:37.145Z,68.30
2019-04-16T18:51:06.259Z,70.10
2019-04-16T18:53:35.499Z,71.40
2019-04-16T18:56:04.295Z,71.40
2019-04-16T18:58:33.443Z,71.90
2019-04-16T19:01:09.002Z,72.40
2019-04-16T19:03:39.448Z,73.10
2019-04-16T19:06:08.348Z,73.10
2019-04-16T19:08:42.143Z,72.60
2019-04-16T19:11:07.548Z,71.80
2019-04-16T19:13:35.953Z,73.10
2019-04-16T19:16:05.378Z,70.90
2019-04-16T19:18:34.281Z,70.60
2019-04-16T19:21:02.738Z,70.80
2019-04-16T19:23:31.850Z,70.90
2019-04-16T19:26:01.291Z,71.10
2019-04-16T19:28:30.118Z,70.60
2019-04-16T19:30:58.735Z,70.70
2019-04-16T19:33:33.407Z,71.20
2019-04-16T19:35:58.503Z,72.10
2019-04-16T19:38:27.201Z,73.50
2019-04-16T19:40:55.867Z,73.00
2019-04-16T19:43:27.968Z,74.10
2019-04-16T19:45:55.101Z,74.70
2019-04-16T19:48:35.338Z,74.50
2019-04-16T19:50:54.240Z,74.50
2019-04-16T19:53:22.750Z,75.80
2019-04-16T19:55:51.516Z,75.60
2019-04-16T19:58:20.653Z,74.70
2019-04-16T20:00:49.192Z,75.10
2019-04-16T20:03:18.044Z,74.80
2019-04-16T20:05:48.200Z,75.40
2019-04-16T20:08:16.945Z,76.60
2019-04-16T20:10:48.663Z,75.50
2019-04-16T20:13:16.181Z,74.20
2019-04-16T20:15:44.901Z,73.20
2019-04-16T20:18:13.617Z,72.50
2019-04-16T20:20:42.183Z,72.30
2019-04-16T20:23:10.730Z,72.60
2019-04-16T20:25:39.313Z,73.00
2019-04-16T20:28:09.555Z,73.20
2019-04-16T20:30:38.819Z,73.90
2019-04-16T20:33:07.798Z,73.50
2019-04-16T20:35:36.506Z,73.20
2019-04-16T20:38:04.891Z,73.20
2019-04-16T20:40:33.547Z,72.90
2019-04-16T20:43:02.569Z,73.40
2019-04-16T20:45:31.006Z,72.80
2019-04-16T20:47:59.678Z,72.60
2019-04-16T20:50:28.307Z,72.80
2019-04-16T20:52:57.331Z,72.70
2019-04-16T20:55:26.206Z,73.00
2019-04-16T20:57:58.679Z,74.00
2019-04-16T21:00:28.390Z,74.10
2019-04-16T21:02:56.943Z,73.70
2019-04-16T21:05:26.270Z,73.30
2019-04-16T21:07:57.068Z,73.00
2019-04-16T21:10:25.826Z,72.40
2019-04-16T21:12:55.658Z,71.90
2019-04-16T21:15:27.483Z,72.00
2019-04-16T21:17:55.930Z,72.20
2019-04-16T21:20:24.816Z,72.50
2019-04-16T21:22:53.695Z,72.30
2019-04-16T21:25:23.902Z,72.70
2019-04-16T21:28:10.739Z,73.60
2019-04-16T21:30:42.850Z,72.80
2019-04-16T21:33:17.709Z,72.40
2019-04-16T21:35:48.585Z,71.80
2019-04-16T21:38:46.146Z,71.70
2019-04-16T21:41:14.534Z,71.70
2019-04-16T21:43:43.215Z,71.50
2019-04-16T21:46:11.888Z,71.50
2019-04-16T21:48:40.288Z,70.80
2019-04-16T21:51:08.942Z,71.00
2019-04-16T21:53:37.373Z,71.00
2019-04-16T21:56:08.257Z,70.90
2019-04-16T21:58:36.590Z,70.80
2019-04-16T22:01:23.213Z,71.20
2019-04-16T22:04:01.749Z,70.70
2019-04-16T22:06:30.227Z,70.40
2019-04-16T22:09:03.295Z,70.40
2019-04-16T22:11:31.904Z,71.10
2019-04-16T22:14:00.241Z,70.20
2019-04-16T22:16:30.591Z,70.20
2019-04-16T22:18:59.271Z,69.90
2019-04-16T22:21:27.884Z,70.00
2019-04-16T22:23:56.369Z,69.80
2019-04-16T22:26:24.675Z,70.00
2019-04-16T22:28:53.649Z,69.80
2019-04-16T22:31:23.948Z,69.10
2019-04-16T22:33:52.611Z,68.40
2019-04-16T22:36:21.641Z,68.20
2019-04-16T22:38:57.160Z,67.90
2019-04-16T22:41:33.853Z,67.60
2019-04-16T22:44:13.093Z,67.30
2019-04-16T22:46:50.427Z,66.90
2019-04-16T22:49:22.295Z,66.70
2019-04-16T22:51:49.508Z,66.20
2019-04-16T22:54:20.834Z,66.70
2019-04-16T22:57:01.992Z,66.20
2019-04-16T22:59:30.293Z,66.60
2019-04-16T23:01:59.209Z,65.70
2019-04-16T23:04:27.792Z,65.60
2019-04-16T23:06:56.462Z,65.60
2019-04-16T23:09:28.725Z,65.30
2019-04-16T23:11:57.272Z,65.70
2019-04-16T23:14:25.700Z,65.90
2019-04-16T23:16:54.178Z,65.40
2019-04-16T23:19:23.313Z,65.40
2019-04-16T23:21:52.482Z,65.40
2019-04-16T23:24:23.378Z,65.40
2019-04-16T23:26:51.810Z,65.70
2019-04-16T23:29:20.602Z,65.40
2019-04-16T23:31:49.221Z,65.10
2019-04-16T23:34:17.862Z,65.10
2019-04-16T23:36:48.665Z,65.00
2019-04-16T23:39:17.479Z,64.50
2019-04-16T23:41:48.167Z,64.40
2019-04-16T23:44:42.245Z,64.30
2019-04-16T23:47:34.808Z,64.00
2019-04-16T23:50:23.844Z,63.90
2019-04-16T23:52:58.384Z,64.10
2019-04-16T23:55:37.725Z,63.70
2019-04-16T23:58:13.505Z,63.60
